createdAt,value
2023-05-24T00:02:14.586Z,89.05
2023-05-24T00:05:01.888Z,87.37
2023-05-24T00:07:48.792Z,87.63
2023-05-24T00:10:35.685Z,88.39
2023-05-24T00:13:22.624Z,88.13
2023-05-24T00:16:09.722Z,88.45
2023-05-24T00:18:58.243Z,89.20
2023-05-24T00:21:46.064Z,89.39
2023-05-24T00:24:33.041Z,89.00
2023-05-24T00:27:20.079Z,88.79
2023-05-24T00:30:07.615Z,88.60
2023-05-24T00:32:54.607Z,88.44
2023-05-24T00:35:41.451Z,87.73
2023-05-24T00:38:28.866Z,88.87
2023-05-24T00:41:15.839Z,87.17
2023-05-24T00:44:03.093Z,87.94
2023-05-24T00:46:50.286Z,88.14
2023-05-24T00:49:37.218Z,87.49
2023-05-24T00:52:24.263Z,87.61
2023-05-24T00:55:11.322Z,88.18
2023-05-24T00:57:58.302Z,87.45
2023-05-24T01:00:49.758Z,87.33
2023-05-24T01:03:36.840Z,88.02
2023-05-24T01:06:27.145Z,88.77
2023-05-24T01:09:25.868Z,88.32
2023-05-24T01:12:38.500Z,88.71
2023-05-24T01:15:42.002Z,88.54
2023-05-24T01:18:34.996Z,88.95
2023-05-24T01:21:48.480Z,89.03
2023-05-24T01:25:03.639Z,89.54
2023-05-24T01:27:51.103Z,88.16
2023-05-24T01:30:40.749Z,88.67
2023-05-24T01:33:28.153Z,87.86
2023-05-24T01:36:15.076Z,87.78
2023-05-24T01:39:02.078Z,88.28
2023-05-24T01:41:59.570Z,88.10
2023-05-24T01:44:55.342Z,88.47
2023-05-24T01:48:00.331Z,89.05
2023-05-24T01:50:57.858Z,89.13
2023-05-24T01:53:47.716Z,89.86
2023-05-24T01:56:37.003Z,89.94
2023-05-24T01:59:26.088Z,89.58
2023-05-24T02:02:13.619Z,89.24
2023-05-24T02:05:00.528Z,90.38
2023-05-24T02:07:47.417Z,89.69
2023-05-24T02:10:34.367Z,89.34
2023-05-24T02:13:21.469Z,89.50
2023-05-24T02:16:08.520Z,89.75
2023-05-24T02:18:55.494Z,89.59
2023-05-24T02:21:42.416Z,89.61
2023-05-24T02:24:29.364Z,90.18
2023-05-24T02:27:16.303Z,91.23
2023-05-24T02:30:03.368Z,90.38
2023-05-24T02:32:50.339Z,90.41
2023-05-24T02:35:37.242Z,90.61
2023-05-24T02:38:24.154Z,90.80
2023-05-24T02:41:11.952Z,90.98
2023-05-24T02:43:58.845Z,90.30
2023-05-24T02:46:45.823Z,90.65
2023-05-24T02:49:32.770Z,91.22
2023-05-24T02:52:22.824Z,90.82
2023-05-24T02:55:10.002Z,90.98
2023-05-24T02:57:57.434Z,91.49
2023-05-24T03:00:44.692Z,91.24
2023-05-24T03:03:31.698Z,91.25
2023-05-24T03:06:18.712Z,90.48
2023-05-24T03:09:05.804Z,91.60
2023-05-24T03:11:54.520Z,91.33
2023-05-24T03:14:41.608Z,91.70
2023-05-24T03:17:28.667Z,91.00
2023-05-24T03:20:16.025Z,91.61
2023-05-24T03:23:03.177Z,92.22
2023-05-24T03:25:50.048Z,91.88
2023-05-24T03:28:36.921Z,92.04
2023-05-24T03:31:26.589Z,91.60
2023-05-24T03:34:13.596Z,92.00
2023-05-24T03:37:00.571Z,92.03
2023-05-24T03:39:47.527Z,92.15
2023-05-24T03:42:34.399Z,91.63
2023-05-24T03:45:34.429Z,91.98
2023-05-24T03:48:25.792Z,91.64
2023-05-24T03:51:12.693Z,90.97
2023-05-24T03:53:59.615Z,91.26
2023-05-24T03:56:46.681Z,91.58
2023-05-24T03:59:33.623Z,92.01
2023-05-24T04:02:20.577Z,92.55
2023-05-24T04:05:10.135Z,92.52
2023-05-24T04:07:57.079Z,93.19
2023-05-24T04:10:44.259Z,94.40
2023-05-24T04:13:31.386Z,93.61
2023-05-24T04:16:18.409Z,93.73
2023-05-24T04:19:05.792Z,94.23
2023-05-24T04:21:52.655Z,92.83
2023-05-24T04:24:39.589Z,93.50
2023-05-24T04:27:27.034Z,95.15
2023-05-24T04:30:16.006Z,95.40
2023-05-24T04:33:03.747Z,95.94
2023-05-24T04:35:50.870Z,95.97
2023-05-24T04:38:38.785Z,93.95
2023-05-24T04:41:28.260Z,95.63
2023-05-24T04:44:15.119Z,95.26
2023-05-24T04:47:03.916Z,96.29
2023-05-24T04:49:50.995Z,96.13
2023-05-24T04:52:37.899Z,95.97
2023-05-24T04:55:24.743Z,95.09
2023-05-24T04:58:11.820Z,95.61
2023-05-24T05:00:58.687Z,96.81
2023-05-24T05:03:46.269Z,96.25
2023-05-24T05:06:35.030Z,95.52
2023-05-24T05:09:22.700Z,95.38
2023-05-24T05:12:09.555Z,94.59
2023-05-24T05:14:56.663Z,95.64
2023-05-24T05:17:43.664Z,95.72
2023-05-24T05:20:30.607Z,95.79
2023-05-24T05:23:17.487Z,96.85
2023-05-24T05:26:04.479Z,95.82
2023-05-24T05:28:51.323Z,94.74
2023-05-24T05:31:39.619Z,93.96
2023-05-24T05:34:26.503Z,90.82
2023-05-24T05:37:13.504Z,90.16
2023-05-24T05:40:00.406Z,89.82
2023-05-24T05:42:47.657Z,90.19
2023-05-24T05:45:34.627Z,90.02
2023-05-24T05:48:22.013Z,89.40
2023-05-24T05:51:09.223Z,90.20
2023-05-24T05:53:56.345Z,90.05
2023-05-24T05:56:45.843Z,89.21
2023-05-24T05:59:35.995Z,88.17
2023-05-24T06:02:23.112Z,88.09
2023-05-24T06:05:10.134Z,87.64
2023-05-24T06:07:56.978Z,89.15
2023-05-24T06:10:44.132Z,87.07
2023-05-24T06:13:32.931Z,88.31
2023-05-24T06:16:21.261Z,86.40
2023-05-24T06:19:08.154Z,86.50
2023-05-24T06:21:55.133Z,88.03
2023-05-24T06:24:42.029Z,88.32
2023-05-24T06:27:28.871Z,89.90
2023-05-24T06:30:16.007Z,88.76
2023-05-24T06:33:03.434Z,89.04
2023-05-24T06:35:50.581Z,86.18
2023-05-24T06:38:37.484Z,86.94
2023-05-24T06:41:24.349Z,87.29
2023-05-24T06:44:11.248Z,87.66
2023-05-24T06:46:58.172Z,86.04
2023-05-24T06:49:45.125Z,86.31
2023-05-24T06:52:32.008Z,85.97
2023-05-24T06:55:19.753Z,87.11
2023-05-24T06:58:07.059Z,87.34
2023-05-24T07:00:54.244Z,85.75
2023-05-24T07:03:41.401Z,86.44
2023-05-24T07:06:28.404Z,84.77
2023-05-24T07:09:15.956Z,86.56
2023-05-24T07:12:02.935Z,86.71
2023-05-24T07:14:49.888Z,86.23
2023-05-24T07:17:37.128Z,84.93
2023-05-24T07:20:24.043Z,85.43
2023-05-24T07:23:10.996Z,85.12
2023-05-24T07:25:57.839Z,84.70
2023-05-24T07:28:44.745Z,86.29
2023-05-24T07:31:34.772Z,86.99
2023-05-24T07:34:22.421Z,85.79
2023-05-24T07:37:09.329Z,86.91
2023-05-24T07:39:56.603Z,87.19
2023-05-24T07:42:43.590Z,85.82
2023-05-24T07:45:31.185Z,86.58
2023-05-24T07:48:18.279Z,85.23
2023-05-24T07:51:06.186Z,84.72
2023-05-24T07:53:53.048Z,86.45
2023-05-24T07:56:41.695Z,86.24
2023-05-24T07:59:29.411Z,87.38
2023-05-24T08:02:16.906Z,86.90
2023-05-24T08:05:05.120Z,87.01
2023-05-24T08:07:55.480Z,86.30
2023-05-24T08:10:42.355Z,85.00
2023-05-24T08:13:29.225Z,85.07
2023-05-24T08:16:16.231Z,84.63
2023-05-24T08:19:03.360Z,84.18
2023-05-24T08:21:50.323Z,83.01
2023-05-24T08:24:37.135Z,83.61
2023-05-24T08:27:24.110Z,82.78
2023-05-24T08:30:11.409Z,82.97
2023-05-24T08:32:58.504Z,82.72
2023-05-24T08:35:45.444Z,82.98
2023-05-24T08:38:32.423Z,81.01
2023-05-24T08:41:19.319Z,81.48
2023-05-24T08:44:07.667Z,81.59
2023-05-24T08:46:56.340Z,80.38
2023-05-24T08:49:43.394Z,78.13
2023-05-24T08:52:32.244Z,78.01
2023-05-24T08:55:19.870Z,79.02
2023-05-24T08:58:07.552Z,77.97
2023-05-24T09:00:54.435Z,78.10
2023-05-24T09:03:42.494Z,77.51
2023-05-24T09:06:29.633Z,77.19
2023-05-24T09:09:21.425Z,75.69
2023-05-24T09:12:09.923Z,74.82
2023-05-24T09:14:57.530Z,74.13
2023-05-24T09:17:44.621Z,72.29
2023-05-24T09:20:31.531Z,72.96
2023-05-24T09:23:19.030Z,69.97
2023-05-24T09:26:10.169Z,71.82
2023-05-24T09:28:57.780Z,72.09
2023-05-24T09:31:44.704Z,73.74
2023-05-24T09:34:39.857Z,73.71
2023-05-24T09:37:32.112Z,73.60
2023-05-24T09:40:20.929Z,74.27
2023-05-24T09:43:10.087Z,75.49
2023-05-24T09:45:58.122Z,73.64
2023-05-24T09:48:58.544Z,72.08
2023-05-24T09:51:46.035Z,72.42
2023-05-24T09:54:33.604Z,71.59
2023-05-24T09:57:22.819Z,70.10
2023-05-24T10:00:16.717Z,69.25
2023-05-24T10:03:07.429Z,68.86
2023-05-24T10:05:55.667Z,67.06
2023-05-24T10:08:42.751Z,64.97
2023-05-24T10:11:29.689Z,65.83
2023-05-24T10:14:18.117Z,66.48
2023-05-24T10:17:06.406Z,66.08
2023-05-24T10:19:54.909Z,65.36
2023-05-24T10:22:45.981Z,63.80
2023-05-24T10:25:35.114Z,64.19
2023-05-24T10:28:24.266Z,63.44
2023-05-24T10:31:15.780Z,63.67
2023-05-24T10:34:08.505Z,63.91
2023-05-24T10:36:55.849Z,66.16
2023-05-24T10:39:43.003Z,65.77
2023-05-24T10:42:32.318Z,64.53
2023-05-24T10:45:25.056Z,63.49
2023-05-24T10:48:15.488Z,61.30
2023-05-24T10:51:33.132Z,63.80
2023-05-24T10:54:24.976Z,64.63
2023-05-24T10:57:12.145Z,64.13
2023-05-24T11:00:47.257Z,62.48
2023-05-24T11:03:35.031Z,60.72
2023-05-24T11:06:58.038Z,63.80
2023-05-24T11:09:48.924Z,62.35
2023-05-24T11:12:38.899Z,62.01
2023-05-24T11:15:26.537Z,61.76
2023-05-24T11:18:14.417Z,61.00
2023-05-24T11:21:03.795Z,63.22
2023-05-24T11:23:52.313Z,59.39
2023-05-24T11:26:40.256Z,58.38
2023-05-24T11:29:27.310Z,59.42
2023-05-24T11:32:19.459Z,60.66
2023-05-24T11:35:08.946Z,62.18
2023-05-24T11:37:57.754Z,60.49
2023-05-24T11:40:47.148Z,63.96
2023-05-24T11:43:34.087Z,66.59
2023-05-24T11:46:21.285Z,61.97
2023-05-24T11:49:15.765Z,60.39
2023-05-24T11:52:03.210Z,60.67
2023-05-24T11:54:50.556Z,63.22
2023-05-24T11:57:41.170Z,65.04
2023-05-24T12:00:28.512Z,61.20
2023-05-24T12:03:17.161Z,64.31
2023-05-24T12:06:04.195Z,61.67
2023-05-24T12:08:51.200Z,58.95
2023-05-24T12:11:39.932Z,59.55
2023-05-24T12:14:31.456Z,61.31
2023-05-24T12:17:18.533Z,60.68
2023-05-24T12:20:09.044Z,59.37
2023-05-24T12:22:56.279Z,57.92
2023-05-24T12:25:44.236Z,59.59
2023-05-24T12:28:38.915Z,56.66
2023-05-24T12:31:26.893Z,56.66
2023-05-24T12:34:16.542Z,59.79
2023-05-24T12:37:03.935Z,60.78
2023-05-24T12:39:52.423Z,62.23
2023-05-24T12:42:41.348Z,60.53
2023-05-24T12:45:28.356Z,59.22
2023-05-24T12:48:15.251Z,62.67
2023-05-24T12:51:03.975Z,62.37
2023-05-24T12:53:50.830Z,61.30
2023-05-24T12:56:38.180Z,57.76
2023-05-24T12:59:27.423Z,59.04
2023-05-24T13:02:14.545Z,58.55
2023-05-24T13:05:01.558Z,58.54
2023-05-24T13:07:49.897Z,62.98
2023-05-24T13:10:37.209Z,66.04
2023-05-24T13:13:24.398Z,66.43
2023-05-24T13:16:11.936Z,66.32
2023-05-24T13:18:58.899Z,66.53
2023-05-24T13:21:45.832Z,68.24
2023-05-24T13:24:32.757Z,65.30
2023-05-24T13:27:19.620Z,65.08
2023-05-24T13:30:07.657Z,66.99
2023-05-24T13:32:55.811Z,67.37
2023-05-24T13:35:43.271Z,66.65
2023-05-24T13:38:30.311Z,67.93
2023-05-24T13:41:17.206Z,67.63
2023-05-24T13:44:04.331Z,67.38
2023-05-24T13:46:51.336Z,68.68
2023-05-24T13:49:38.193Z,68.49
2023-05-24T13:52:26.246Z,69.46
2023-05-24T13:55:13.454Z,68.33
2023-05-24T13:58:01.751Z,67.72
2023-05-24T14:00:48.688Z,70.14
2023-05-24T14:03:35.578Z,70.69
2023-05-24T14:06:25.392Z,66.80
2023-05-24T14:09:12.331Z,68.36
2023-05-24T14:11:59.287Z,70.30
2023-05-24T14:17:36.365Z,70.81
2023-05-24T14:20:23.317Z,67.97
2023-05-24T14:23:10.578Z,70.32
2023-05-24T14:25:58.154Z,71.07
2023-05-24T14:28:45.016Z,71.77
2023-05-24T14:31:33.606Z,71.49
2023-05-24T14:34:20.619Z,69.60
2023-05-24T14:37:07.571Z,72.63
2023-05-24T14:39:55.134Z,71.47
2023-05-24T14:42:42.076Z,71.20
2023-05-24T14:45:28.953Z,69.84
2023-05-24T14:48:16.700Z,71.81
2023-05-24T14:51:03.713Z,71.09
2023-05-24T14:53:50.676Z,70.00
2023-05-24T14:56:38.097Z,70.86
2023-05-24T14:59:25.258Z,71.20
2023-05-24T15:02:12.593Z,72.60
2023-05-24T15:04:59.978Z,73.22
2023-05-24T15:07:47.252Z,71.78
2023-05-24T15:10:34.312Z,73.61
2023-05-24T15:13:22.970Z,73.56
2023-05-24T15:16:09.982Z,72.26
2023-05-24T15:18:56.955Z,73.22
2023-05-24T15:21:43.827Z,73.58
2023-05-24T15:24:30.670Z,73.33
2023-05-24T15:27:17.596Z,72.02
2023-05-24T15:30:05.028Z,72.95
2023-05-24T15:32:52.021Z,74.11
2023-05-24T15:35:38.918Z,72.55
2023-05-24T15:38:25.832Z,74.07
2023-05-24T15:41:12.746Z,73.79
2023-05-24T15:44:00.884Z,74.68
2023-05-24T15:46:47.802Z,73.32
2023-05-24T15:49:34.788Z,72.97
2023-05-24T15:52:22.170Z,73.87
2023-05-24T15:55:09.611Z,73.64
2023-05-24T15:57:57.798Z,75.04
2023-05-24T16:00:45.060Z,74.72
2023-05-24T16:03:32.330Z,73.64
2023-05-24T16:06:19.322Z,75.26
2023-05-24T16:09:07.082Z,74.76
2023-05-24T16:11:54.321Z,73.20
2023-05-24T16:14:41.367Z,73.75
2023-05-24T16:17:28.394Z,74.10
2023-05-24T16:20:15.304Z,74.93
2023-05-24T16:23:03.705Z,75.05
2023-05-24T16:25:51.365Z,75.66
2023-05-24T16:28:38.299Z,74.78
2023-05-24T16:31:25.714Z,73.93
2023-05-24T16:34:12.747Z,73.37
2023-05-24T16:36:59.833Z,74.27
2023-05-24T16:39:46.751Z,74.48
2023-05-24T16:42:33.670Z,74.76
2023-05-24T16:45:20.908Z,75.70
2023-05-24T16:48:07.870Z,76.24
2023-05-24T16:50:56.812Z,75.92
2023-05-24T16:53:43.718Z,75.52
2023-05-24T16:56:30.598Z,76.60
2023-05-24T16:59:17.477Z,77.82
2023-05-24T17:02:05.011Z,79.35
2023-05-24T17:04:52.296Z,77.47
2023-05-24T17:07:39.496Z,77.18
2023-05-24T17:10:26.361Z,78.69
2023-05-24T17:13:13.300Z,77.35
2023-05-24T17:16:00.695Z,76.50
2023-05-24T17:18:47.841Z,77.01
2023-05-24T17:21:34.730Z,77.27
2023-05-24T17:24:22.532Z,77.29
2023-05-24T17:27:12.633Z,78.39
2023-05-24T17:29:59.500Z,77.56
2023-05-24T17:32:46.455Z,78.27
2023-05-24T17:35:33.341Z,77.51
2023-05-24T17:38:20.219Z,77.70
2023-05-24T17:41:10.139Z,78.59
2023-05-24T17:43:57.107Z,80.42
2023-05-24T17:46:44.165Z,83.47
2023-05-24T17:49:32.379Z,85.35
2023-05-24T17:52:19.959Z,85.44
2023-05-24T17:55:07.629Z,86.24
2023-05-24T17:57:54.878Z,86.68
2023-05-24T18:00:41.722Z,88.13
2023-05-24T18:03:28.638Z,88.50
2023-05-24T18:06:15.697Z,89.19
2023-05-24T18:09:02.581Z,89.48
2023-05-24T18:11:49.759Z,90.20
2023-05-24T18:14:39.096Z,89.44
2023-05-24T18:17:27.358Z,90.23
2023-05-24T18:20:15.320Z,90.92
2023-05-24T18:23:02.991Z,89.47
2023-05-24T18:25:49.956Z,89.40
2023-05-24T18:28:38.413Z,90.11
2023-05-24T18:31:25.333Z,90.27
2023-05-24T18:34:12.430Z,90.28
2023-05-24T18:36:59.392Z,90.82
2023-05-24T18:39:46.398Z,90.74
2023-05-24T18:42:33.307Z,90.94
2023-05-24T18:45:20.202Z,91.95
2023-05-24T18:48:07.934Z,91.26
2023-05-24T18:50:55.099Z,92.16
2023-05-24T18:53:42.168Z,92.44
2023-05-24T18:56:29.484Z,92.52
2023-05-24T18:59:21.588Z,93.22
2023-05-24T19:02:08.551Z,93.22
2023-05-24T19:04:55.511Z,93.34
2023-05-24T19:07:42.374Z,92.59
2023-05-24T19:10:29.603Z,92.10
2023-05-24T19:13:17.000Z,92.75
2023-05-24T19:16:04.024Z,92.76
2023-05-24T19:18:50.949Z,94.27
2023-05-24T19:21:39.294Z,95.29
2023-05-24T19:24:26.306Z,95.03
2023-05-24T19:27:13.601Z,95.89
2023-05-24T19:30:00.467Z,97.08
2023-05-24T19:32:47.487Z,97.65
2023-05-24T19:35:34.884Z,99.00
2023-05-24T19:38:22.130Z,98.10
2023-05-24T19:41:09.251Z,98.49
2023-05-24T19:43:58.680Z,99.12
2023-05-24T19:46:45.671Z,99.49
2023-05-24T19:49:32.714Z,99.36
2023-05-24T19:52:21.248Z,100.00
2023-05-24T19:55:08.685Z,99.98
2023-05-24T19:57:55.684Z,100.00
2023-05-24T20:00:42.614Z,100.00
2023-05-24T20:03:29.774Z,100.00
2023-05-24T20:06:17.199Z,100.00
2023-05-24T20:09:04.547Z,100.00
2023-05-24T20:11:51.437Z,100.00
2023-05-24T20:14:38.346Z,100.00
2023-05-24T20:17:25.505Z,100.00
2023-05-24T20:20:12.513Z,100.00
2023-05-24T20:22:59.502Z,100.00
2023-05-24T20:25:46.691Z,100.00
2023-05-24T20:28:33.637Z,100.00
2023-05-24T20:31:20.571Z,100.00
2023-05-24T20:34:07.521Z,100.00
2023-05-24T20:36:54.392Z,100.00
2023-05-24T20:39:41.250Z,100.00
2023-05-24T20:42:28.103Z,100.00
2023-05-24T20:45:15.027Z,100.00
2023-05-24T20:48:02.093Z,100.00
2023-05-24T20:50:49.117Z,100.00
2023-05-24T20:53:36.983Z,100.00
2023-05-24T20:56:24.551Z,100.00
2023-05-24T20:59:11.647Z,100.00
2023-05-24T21:01:58.693Z,100.00
2023-05-24T21:04:45.687Z,99.85
2023-05-24T21:07:32.652Z,99.91
2023-05-24T21:10:20.007Z,100.00
2023-05-24T21:13:07.089Z,100.00
2023-05-24T21:15:54.331Z,99.58
2023-05-24T21:18:41.491Z,99.91
2023-05-24T21:21:28.457Z,100.00
2023-05-24T21:24:16.270Z,100.00
2023-05-24T21:27:03.201Z,100.00
2023-05-24T21:29:50.102Z,100.00
2023-05-24T21:32:36.963Z,100.00
2023-05-24T21:35:23.917Z,99.86
2023-05-24T21:38:10.969Z,99.95
2023-05-24T21:40:57.875Z,100.00
2023-05-24T21:43:44.754Z,100.00
2023-05-24T21:46:33.611Z,100.00
2023-05-24T21:49:21.413Z,99.85
2023-05-24T21:52:08.398Z,100.00
2023-05-24T21:54:55.498Z,100.00
2023-05-24T21:57:42.401Z,100.00
2023-05-24T22:00:29.248Z,100.00
2023-05-24T22:03:16.224Z,100.00
2023-05-24T22:06:03.205Z,100.00
2023-05-24T22:08:50.096Z,100.00
2023-05-24T22:11:37.058Z,100.00
2023-05-24T22:14:24.044Z,100.00
2023-05-24T22:17:11.296Z,100.00
2023-05-24T22:20:06.887Z,100.00
2023-05-24T22:22:53.841Z,100.00
2023-05-24T22:25:41.599Z,100.00
2023-05-24T22:28:28.978Z,100.00
2023-05-24T22:31:15.976Z,100.00
2023-05-24T22:34:03.127Z,100.00
2023-05-24T22:36:50.048Z,99.61
2023-05-24T22:39:37.012Z,99.62
2023-05-24T22:42:24.096Z,100.00
2023-05-24T22:45:12.019Z,99.80
2023-05-24T22:47:58.973Z,100.00
2023-05-24T22:50:45.841Z,100.00
2023-05-24T22:53:32.782Z,100.00
2023-05-24T22:56:19.707Z,100.00
2023-05-24T22:59:07.480Z,100.00
2023-05-24T23:01:54.435Z,100.00
2023-05-24T23:04:41.656Z,100.00
2023-05-24T23:07:28.704Z,100.00
2023-05-24T23:10:15.695Z,100.00
2023-05-24T23:13:04.156Z,100.00
2023-05-24T23:15:51.571Z,100.00
2023-05-24T23:18:42.854Z,100.00
2023-05-24T23:21:29.729Z,100.00
2023-05-24T23:24:16.579Z,100.00
2023-05-24T23:27:06.915Z,100.00
2023-05-24T23:29:53.788Z,100.00
2023-05-24T23:32:40.766Z,100.00
2023-05-24T23:35:27.699Z,100.00
2023-05-24T23:38:15.508Z,100.00
2023-05-24T23:41:02.368Z,100.00
2023-05-24T23:43:49.344Z,100.00
2023-05-24T23:46:36.407Z,100.00
2023-05-24T23:49:24.618Z,100.00
2023-05-24T23:52:12.362Z,100.00
2023-05-24T23:54:59.222Z,100.00
2023-05-24T23:57:47.604Z,100.00
